createdAt,value
2022-12-15T00:00:51.175Z,38.03
2022-12-15T00:03:38.185Z,31.08
2022-12-15T00:06:25.175Z,30.38
2022-12-15T00:09:14.424Z,28.23
2022-12-15T00:12:01.827Z,34.83
2022-12-15T00:14:48.803Z,30.05
2022-12-15T00:17:36.464Z,34.70
2022-12-15T00:20:23.166Z,32.05
2022-12-15T00:23:10.206Z,30.00
2022-12-15T00:25:57.112Z,29.70
2022-12-15T00:28:43.860Z,24.50
2022-12-15T00:31:30.557Z,22.90
2022-12-15T00:34:17.518Z,25.08
2022-12-15T00:37:06.764Z,21.05
2022-12-15T00:39:35.129Z,28.35
2022-12-15T00:42:03.815Z,24.95
2022-12-15T00:44:32.091Z,25.35
2022-12-15T00:47:03.583Z,25.77
2022-12-15T00:49:53.641Z,35.92
2022-12-15T00:52:41.490Z,32.15
2022-12-15T00:55:28.677Z,36.50
2022-12-15T00:58:15.491Z,37.85
2022-12-15T01:01:02.298Z,39.17
2022-12-15T01:03:49.070Z,40.30
2022-12-15T01:06:38.443Z,41.30
2022-12-15T01:09:27.472Z,45.63
2022-12-15T01:12:14.379Z,38.20
2022-12-15T01:15:01.377Z,42.53
2022-12-15T01:17:48.628Z,43.33
2022-12-15T01:20:19.941Z,33.72
2022-12-15T01:22:51.538Z,33.60
2022-12-15T01:25:21.926Z,27.85
2022-12-15T01:27:50.398Z,27.38
2022-12-15T01:30:21.344Z,29.90
2022-12-15T01:32:50.075Z,25.98
2022-12-15T01:35:18.887Z,22.42
2022-12-15T01:37:49.836Z,25.88
2022-12-15T01:40:39.911Z,25.13
2022-12-15T01:43:31.576Z,24.65
2022-12-15T01:46:30.836Z,27.55
2022-12-15T01:49:15.580Z,27.50
2022-12-15T01:51:48.854Z,29.98
2022-12-15T01:56:54.954Z,36.72
2022-12-15T01:59:33.089Z,37.30
2022-12-15T02:02:02.315Z,37.47
2022-12-15T02:04:32.439Z,33.40
2022-12-15T02:07:00.657Z,37.25
2022-12-15T02:09:29.770Z,33.80
2022-12-15T02:12:00.911Z,31.02
2022-12-15T02:14:47.601Z,35.72
2022-12-15T02:17:37.237Z,32.92
2022-12-15T02:21:09.632Z,28.60
2022-12-15T02:24:19.427Z,30.83
2022-12-15T02:27:04.606Z,22.80
2022-12-15T02:30:05.864Z,23.73
2022-12-15T02:33:06.920Z,22.17
2022-12-15T02:35:56.891Z,22.27
2022-12-15T02:38:39.318Z,16.88
2022-12-15T02:41:35.862Z,14.90
2022-12-15T02:44:18.737Z,14.55
2022-12-15T02:47:05.347Z,12.68
2022-12-15T02:50:02.930Z,13.48
2022-12-15T02:52:52.158Z,12.30
2022-12-15T02:55:50.565Z,10.88
2022-12-15T02:58:33.867Z,12.48
2022-12-15T03:01:40.254Z,24.30
2022-12-15T03:04:11.107Z,28.40
2022-12-15T03:06:39.899Z,30.35
2022-12-15T03:09:26.655Z,28.95
2022-12-15T03:11:54.851Z,25.70
2022-12-15T03:14:23.013Z,25.98
2022-12-15T03:16:52.036Z,21.45
2022-12-15T03:19:20.656Z,21.08
2022-12-15T03:21:48.862Z,19.15
2022-12-15T03:24:18.119Z,25.23
2022-12-15T03:26:50.058Z,18.60
2022-12-15T03:29:18.743Z,19.85
2022-12-15T03:31:50.069Z,19.00
2022-12-15T03:34:18.940Z,18.05
2022-12-15T03:36:47.353Z,20.70
2022-12-15T03:39:15.617Z,20.23
2022-12-15T03:41:43.738Z,21.67
2022-12-15T03:44:11.986Z,24.70
2022-12-15T03:46:40.225Z,23.58
2022-12-15T03:49:08.471Z,19.83
2022-12-15T03:51:36.597Z,20.42
2022-12-15T03:54:04.904Z,23.30
2022-12-15T03:56:33.229Z,21.60
2022-12-15T03:59:01.429Z,24.95
2022-12-15T04:01:34.776Z,21.55
2022-12-15T04:04:04.257Z,24.88
2022-12-15T04:06:32.597Z,23.45
2022-12-15T04:09:00.773Z,21.73
2022-12-15T04:11:29.028Z,15.50
2022-12-15T04:13:57.219Z,14.02
2022-12-15T04:16:25.451Z,16.15
2022-12-15T04:19:13.655Z,18.08
2022-12-15T04:21:41.821Z,22.48
2022-12-15T04:24:28.683Z,25.08
2022-12-15T04:27:15.179Z,29.83
2022-12-15T04:30:01.835Z,26.92
2022-12-15T04:32:49.741Z,32.75
2022-12-15T04:35:37.046Z,32.70
2022-12-15T04:38:23.742Z,32.05
2022-12-15T04:41:10.530Z,28.08
2022-12-15T04:43:57.579Z,34.88
2022-12-15T04:46:44.514Z,27.73
2022-12-15T04:49:31.196Z,38.80
2022-12-15T04:52:18.160Z,32.80
2022-12-15T04:55:05.066Z,38.08
2022-12-15T04:57:51.916Z,36.95
2022-12-15T05:00:38.600Z,35.08
2022-12-15T05:03:26.652Z,39.67
2022-12-15T05:06:17.252Z,41.80
2022-12-15T05:09:03.987Z,42.70
2022-12-15T05:11:50.574Z,40.13
2022-12-15T05:14:37.397Z,37.70
2022-12-15T05:17:24.345Z,38.78
2022-12-15T05:20:11.352Z,41.60
2022-12-15T05:22:58.239Z,38.08
2022-12-15T05:25:45.236Z,38.58
2022-12-15T05:28:31.968Z,40.03
2022-12-15T05:31:18.663Z,31.98
2022-12-15T05:33:46.903Z,37.22
2022-12-15T05:36:15.110Z,34.45
2022-12-15T05:38:45.557Z,31.60
2022-12-15T05:41:20.203Z,33.78
2022-12-15T05:43:48.421Z,40.45
2022-12-15T05:46:16.719Z,34.08
2022-12-15T05:48:45.181Z,33.45
2022-12-15T05:51:14.384Z,36.65
2022-12-15T05:53:43.901Z,36.15
2022-12-15T05:56:14.468Z,36.95
2022-12-15T05:58:45.620Z,41.53
2022-12-15T06:01:16.627Z,32.97
2022-12-15T06:03:45.849Z,31.20
2022-12-15T06:06:14.260Z,27.63
2022-12-15T06:08:43.838Z,24.77
2022-12-15T06:11:14.051Z,32.60
2022-12-15T06:13:43.057Z,27.27
2022-12-15T06:16:15.816Z,28.35
2022-12-15T06:18:49.924Z,28.90
2022-12-15T06:21:21.478Z,31.52
2022-12-15T06:23:49.967Z,28.52
2022-12-15T06:26:24.275Z,25.23
2022-12-15T06:28:54.751Z,32.33
2022-12-15T06:31:23.358Z,34.42
2022-12-15T06:33:59.250Z,35.60
2022-12-15T06:36:30.962Z,29.60
2022-12-15T06:39:00.896Z,35.88
2022-12-15T06:41:30.700Z,35.22
2022-12-15T06:44:00.287Z,34.38
2022-12-15T06:46:30.461Z,36.65
2022-12-15T06:48:59.607Z,33.75
2022-12-15T06:51:29.029Z,31.60
2022-12-15T06:54:00.207Z,29.65
2022-12-15T06:56:33.926Z,31.38
2022-12-15T06:59:04.413Z,30.48
2022-12-15T07:01:34.217Z,30.95
2022-12-15T07:04:05.761Z,27.73
2022-12-15T07:06:37.928Z,32.55
2022-12-15T07:09:22.801Z,31.38
2022-12-15T07:11:54.800Z,35.47
2022-12-15T07:14:25.064Z,58.00
2022-12-15T07:16:54.226Z,165.57
2022-12-15T07:19:22.649Z,175.55
2022-12-15T07:21:53.571Z,130.20
2022-12-15T07:24:22.431Z,72.45
2022-12-15T07:26:50.777Z,53.25
2022-12-15T07:29:23.242Z,54.20
2022-12-15T07:31:57.434Z,41.00
2022-12-15T07:34:28.347Z,49.28
2022-12-15T07:37:00.572Z,35.63
2022-12-15T07:39:30.849Z,39.40
2022-12-15T07:42:00.944Z,33.70
2022-12-15T07:44:29.395Z,36.85
2022-12-15T07:46:57.764Z,39.83
2022-12-15T07:49:26.109Z,36.60
2022-12-15T07:51:56.456Z,34.13
2022-12-15T07:54:25.350Z,36.97
2022-12-15T07:56:53.523Z,36.28
2022-12-15T07:59:21.831Z,40.08
2022-12-15T08:01:50.794Z,35.95
2022-12-15T08:04:22.119Z,33.38
2022-12-15T08:06:51.379Z,36.45
2022-12-15T08:09:19.593Z,34.50
2022-12-15T08:11:48.075Z,33.95
2022-12-15T08:14:17.943Z,37.10
2022-12-15T08:16:47.103Z,42.42
2022-12-15T08:19:17.010Z,36.22
2022-12-15T08:21:46.803Z,39.88
2022-12-15T08:24:16.155Z,37.10
2022-12-15T08:26:50.376Z,39.47
2022-12-15T08:32:07.773Z,36.80
2022-12-15T08:34:36.110Z,34.70
2022-12-15T08:37:04.304Z,38.28
2022-12-15T08:39:32.530Z,38.17
2022-12-15T08:42:00.765Z,45.85
2022-12-15T08:44:28.952Z,45.00
2022-12-15T08:46:57.212Z,43.90
2022-12-15T08:49:27.384Z,38.67
2022-12-15T08:51:55.629Z,35.38
2022-12-15T08:54:23.802Z,38.33
2022-12-15T08:56:55.206Z,36.50
2022-12-15T08:59:26.330Z,43.55
2022-12-15T09:01:54.808Z,38.63
2022-12-15T09:04:23.148Z,42.75
2022-12-15T09:06:51.441Z,39.92
2022-12-15T09:09:19.897Z,40.15
2022-12-15T09:11:48.654Z,45.70
2022-12-15T09:14:18.968Z,41.33
2022-12-15T09:16:50.447Z,41.08
2022-12-15T09:19:19.476Z,43.75
2022-12-15T09:21:49.561Z,42.67
2022-12-15T09:24:28.730Z,46.13
2022-12-15T09:27:01.150Z,45.28
2022-12-15T09:29:29.295Z,36.15
2022-12-15T09:32:00.389Z,37.88
2022-12-15T09:34:28.800Z,43.40
2022-12-15T09:36:57.077Z,47.90
2022-12-15T09:39:25.360Z,42.92
2022-12-15T09:41:58.637Z,47.53
2022-12-15T09:47:24.772Z,52.28
2022-12-15T09:50:03.177Z,48.58
2022-12-15T09:53:29.775Z,43.15
2022-12-15T09:56:08.127Z,45.58
2022-12-15T09:58:50.620Z,43.47
2022-12-15T10:01:34.085Z,47.50
2022-12-15T10:04:11.154Z,47.33
2022-12-15T10:07:20.745Z,46.60
2022-12-15T10:09:48.973Z,52.13
2022-12-15T10:12:20.578Z,48.78
2022-12-15T10:15:28.443Z,46.28
2022-12-15T10:18:34.366Z,44.38
2022-12-15T10:21:03.532Z,43.70
2022-12-15T10:23:35.995Z,50.55
2022-12-15T10:26:21.591Z,48.92
2022-12-15T10:29:17.476Z,44.05
2022-12-15T10:31:58.127Z,41.20
2022-12-15T10:34:39.145Z,46.25
2022-12-15T10:37:13.476Z,43.40
2022-12-15T10:39:44.397Z,49.78
2022-12-15T10:42:24.205Z,48.20
2022-12-15T10:44:57.656Z,43.28
2022-12-15T10:47:28.747Z,39.50
2022-12-15T10:50:25.109Z,44.42
2022-12-15T10:52:53.692Z,45.83
2022-12-15T10:55:40.710Z,44.20
2022-12-15T10:58:22.881Z,43.55
2022-12-15T11:01:08.632Z,40.67
2022-12-15T11:03:39.433Z,39.65
2022-12-15T11:06:17.161Z,43.28
2022-12-15T11:08:47.527Z,48.88
2022-12-15T11:11:48.112Z,45.42
2022-12-15T11:14:25.528Z,33.83
2022-12-15T11:16:58.633Z,44.03
2022-12-15T11:19:45.537Z,41.20
2022-12-15T11:22:36.787Z,37.92
2022-12-15T11:25:30.734Z,42.72
2022-12-15T11:28:27.680Z,40.00
2022-12-15T11:31:13.055Z,36.58
2022-12-15T11:33:41.248Z,44.25
2022-12-15T11:36:38.149Z,41.28
2022-12-15T11:39:29.337Z,39.97
2022-12-15T11:42:34.035Z,43.05
2022-12-15T11:45:20.783Z,44.85
2022-12-15T11:47:58.075Z,49.50
2022-12-15T11:50:39.714Z,42.33
2022-12-15T11:53:13.991Z,42.13
2022-12-15T11:56:03.450Z,46.83
2022-12-15T11:58:53.652Z,47.30
2022-12-15T12:02:03.506Z,46.13
2022-12-15T12:05:00.453Z,40.33
2022-12-15T12:07:44.921Z,46.30
2022-12-15T12:10:40.119Z,48.92
2022-12-15T12:13:26.263Z,42.67
2022-12-15T12:16:15.793Z,38.10
2022-12-15T12:18:55.810Z,39.33
2022-12-15T12:21:39.469Z,41.70
2022-12-15T12:24:37.570Z,40.67
2022-12-15T12:27:11.484Z,45.70
2022-12-15T12:29:52.436Z,41.15
2022-12-15T12:32:45.060Z,46.05
2022-12-15T12:35:32.248Z,45.78
2022-12-15T12:38:05.117Z,45.80
2022-12-15T12:40:54.947Z,46.97
2022-12-15T12:43:40.305Z,42.03
2022-12-15T12:46:31.860Z,44.30
2022-12-15T12:49:11.510Z,40.65
2022-12-15T12:51:49.473Z,43.55
2022-12-15T12:54:36.154Z,47.63
2022-12-15T12:57:33.985Z,49.58
2022-12-15T13:00:08.351Z,43.40
2022-12-15T13:02:38.228Z,44.20
2022-12-15T13:05:29.933Z,48.03
2022-12-15T13:08:07.912Z,45.42
2022-12-15T13:10:47.463Z,49.63
2022-12-15T13:13:31.511Z,44.05
2022-12-15T13:16:20.059Z,43.60
2022-12-15T13:19:06.958Z,48.17
2022-12-15T13:21:45.138Z,50.53
2022-12-15T13:24:41.305Z,45.65
2022-12-15T13:27:09.373Z,45.20
2022-12-15T13:29:57.942Z,48.65
2022-12-15T13:32:37.955Z,48.67
2022-12-15T13:35:26.660Z,48.65
2022-12-15T13:37:57.336Z,48.65
2022-12-15T13:40:35.293Z,47.25
2022-12-15T13:43:06.629Z,46.67
2022-12-15T13:45:58.212Z,51.10
2022-12-15T13:48:49.332Z,51.35
2022-12-15T13:51:32.943Z,51.25
2022-12-15T13:54:09.960Z,52.08
2022-12-15T13:56:55.778Z,50.97
2022-12-15T13:59:33.244Z,48.70
2022-12-15T14:02:01.817Z,56.08
2022-12-15T14:04:30.163Z,60.33
2022-12-15T14:07:01.929Z,58.63
2022-12-15T14:09:50.493Z,54.97
2022-12-15T14:12:19.071Z,52.40
2022-12-15T14:14:49.586Z,51.55
2022-12-15T14:17:19.474Z,50.00
2022-12-15T14:19:51.006Z,53.20
2022-12-15T14:22:30.107Z,44.83
2022-12-15T14:25:18.829Z,49.47
2022-12-15T14:27:50.677Z,46.53
2022-12-15T14:30:25.619Z,47.47
2022-12-15T14:33:15.150Z,52.17
2022-12-15T14:35:50.238Z,47.75
2022-12-15T14:38:26.377Z,48.28
2022-12-15T14:40:58.143Z,55.65
2022-12-15T14:43:32.341Z,51.95
2022-12-15T14:46:17.180Z,50.40
2022-12-15T14:49:04.689Z,50.83
2022-12-15T14:51:42.254Z,58.55
2022-12-15T14:54:28.820Z,49.28
2022-12-15T14:57:16.749Z,48.53
2022-12-15T14:59:48.586Z,44.30
2022-12-15T15:02:30.059Z,50.53
2022-12-15T15:05:05.084Z,50.58
2022-12-15T15:07:34.962Z,44.92
2022-12-15T15:10:08.798Z,46.47
2022-12-15T15:12:47.194Z,43.92
2022-12-15T15:15:18.825Z,50.90
2022-12-15T15:17:56.749Z,46.72
2022-12-15T15:20:36.135Z,45.40
2022-12-15T15:23:20.152Z,49.60
2022-12-15T15:25:56.667Z,51.55
2022-12-15T15:28:36.868Z,53.72
2022-12-15T15:31:25.258Z,50.42
2022-12-15T15:33:56.881Z,49.15
2022-12-15T15:36:39.224Z,46.08
2022-12-15T15:39:15.650Z,52.13
2022-12-15T15:41:44.020Z,44.70
2022-12-15T15:44:16.388Z,54.10
2022-12-15T15:46:50.656Z,46.10
2022-12-15T15:49:24.546Z,47.08
2022-12-15T15:51:54.885Z,47.88
2022-12-15T15:54:33.741Z,46.90
2022-12-15T15:57:02.325Z,48.85
2022-12-15T15:59:31.131Z,47.55
2022-12-15T16:02:00.475Z,56.33
2022-12-15T16:04:28.977Z,53.95
2022-12-15T16:06:57.163Z,55.20
2022-12-15T16:09:25.750Z,52.05
2022-12-15T16:11:54.483Z,53.53
2022-12-15T16:14:22.655Z,51.45
2022-12-15T16:16:53.906Z,58.65
2022-12-15T16:19:22.187Z,57.50
2022-12-15T16:21:59.074Z,49.90
2022-12-15T16:24:27.362Z,53.33
2022-12-15T16:26:55.873Z,54.97
2022-12-15T16:29:24.179Z,52.65
2022-12-15T16:31:52.479Z,55.70
2022-12-15T16:34:21.805Z,52.42
2022-12-15T16:36:50.416Z,54.22
2022-12-15T16:39:31.619Z,56.20
2022-12-15T16:42:00.359Z,55.72
2022-12-15T16:44:29.662Z,47.83
2022-12-15T16:46:58.983Z,51.33
2022-12-15T16:49:33.876Z,50.45
2022-12-15T16:52:08.486Z,44.75
2022-12-15T16:54:36.809Z,55.88
2022-12-15T16:57:07.595Z,44.08
2022-12-15T16:59:36.354Z,48.55
2022-12-15T17:02:29.546Z,41.72
2022-12-15T17:04:58.099Z,44.53
2022-12-15T17:07:28.245Z,45.92
2022-12-15T17:09:56.913Z,45.08
2022-12-15T17:12:25.290Z,51.45
2022-12-15T17:14:53.580Z,48.25
2022-12-15T17:17:21.776Z,50.45
2022-12-15T17:20:27.841Z,52.42
2022-12-15T17:22:40.215Z,47.08
2022-12-15T17:25:27.368Z,46.47
2022-12-15T17:28:00.633Z,43.55
2022-12-15T17:30:28.983Z,41.22
2022-12-15T17:32:58.909Z,40.40
2022-12-15T17:35:27.375Z,38.05
2022-12-15T17:37:55.734Z,39.83
2022-12-15T17:40:24.597Z,42.15
2022-12-15T17:42:52.911Z,41.80
2022-12-15T17:45:23.836Z,36.85
2022-12-15T17:47:53.777Z,39.30
2022-12-15T17:50:25.178Z,40.30
2022-12-15T17:52:54.720Z,37.22
2022-12-15T17:55:30.371Z,36.10
2022-12-15T17:58:06.470Z,36.15
2022-12-15T18:00:34.813Z,40.03
2022-12-15T18:03:05.614Z,38.42
2022-12-15T18:05:34.049Z,37.78
2022-12-15T18:08:07.176Z,33.97
2022-12-15T18:10:38.867Z,37.78
2022-12-15T18:13:18.954Z,34.63
2022-12-15T18:15:47.869Z,35.08
2022-12-15T18:18:17.523Z,33.33
2022-12-15T18:20:45.942Z,31.05
2022-12-15T18:23:21.104Z,30.75
2022-12-15T18:25:49.946Z,33.70
2022-12-15T18:28:28.245Z,28.50
2022-12-15T18:31:15.486Z,26.90
2022-12-15T18:33:46.080Z,27.10
2022-12-15T18:36:15.217Z,22.33
2022-12-15T18:38:43.816Z,19.48
2022-12-15T18:41:18.219Z,23.48
2022-12-15T18:43:47.802Z,22.13
2022-12-15T18:46:18.817Z,19.08
2022-12-15T18:48:47.123Z,17.67
2022-12-15T18:51:21.595Z,16.15
2022-12-15T18:53:49.955Z,13.40
2022-12-15T18:56:21.590Z,13.93
2022-12-15T18:58:49.969Z,16.55
2022-12-15T19:01:18.282Z,16.27
2022-12-15T19:03:46.489Z,17.63
2022-12-15T19:06:26.032Z,13.80
2022-12-15T19:08:54.552Z,14.32
2022-12-15T19:11:33.356Z,16.63
2022-12-15T19:14:03.197Z,14.73
2022-12-15T19:16:51.497Z,19.20
2022-12-15T19:19:38.573Z,17.55
2022-12-15T19:22:29.924Z,20.85
2022-12-15T19:24:59.133Z,18.90
2022-12-15T19:27:27.436Z,19.17
2022-12-15T19:29:55.742Z,20.88
2022-12-15T19:32:24.274Z,20.98
2022-12-15T19:34:52.465Z,22.75
2022-12-15T19:37:26.809Z,23.70
2022-12-15T19:39:58.968Z,23.65
2022-12-15T19:42:39.228Z,24.70
2022-12-15T19:45:20.860Z,23.73
2022-12-15T19:47:49.153Z,22.95
2022-12-15T19:50:20.339Z,20.23
2022-12-15T19:52:53.112Z,21.67
2022-12-15T19:55:26.924Z,21.50
2022-12-15T19:57:55.106Z,22.33
2022-12-15T20:00:27.454Z,24.80
2022-12-15T20:02:56.683Z,27.63
2022-12-15T20:05:26.074Z,25.63
2022-12-15T20:07:55.048Z,25.70
2022-12-15T20:10:31.765Z,29.50
2022-12-15T20:13:01.878Z,28.58
2022-12-15T20:15:30.032Z,29.85
2022-12-15T20:17:58.281Z,23.45
2022-12-15T20:20:28.437Z,25.58
2022-12-15T20:23:01.679Z,23.80
2022-12-15T20:25:33.439Z,19.58
2022-12-15T20:28:02.087Z,18.60
2022-12-15T20:30:35.674Z,17.35
2022-12-15T20:33:07.106Z,19.42
2022-12-15T20:35:37.442Z,18.15
2022-12-15T20:38:23.571Z,22.20
2022-12-15T20:40:52.669Z,17.88
2022-12-15T20:43:25.760Z,22.38
2022-12-15T20:50:58.364Z,25.85
2022-12-15T20:53:27.767Z,27.13
2022-12-15T20:55:57.941Z,27.70
2022-12-15T20:58:32.707Z,26.17
2022-12-15T21:01:01.780Z,21.33
2022-12-15T21:03:36.805Z,21.45
2022-12-15T21:06:05.670Z,17.92
2022-12-15T21:08:33.908Z,15.55
2022-12-15T21:11:18.420Z,16.33
2022-12-15T21:13:49.056Z,15.05
2022-12-15T21:16:19.714Z,17.65
2022-12-15T21:19:18.672Z,12.63
2022-12-15T21:21:41.928Z,14.45
2022-12-15T21:24:23.013Z,12.13
2022-12-15T21:26:52.680Z,13.70
2022-12-15T21:29:24.330Z,16.52
2022-12-15T21:31:52.976Z,16.77
2022-12-15T21:34:21.393Z,12.93
2022-12-15T21:36:55.276Z,14.18
2022-12-15T21:39:31.328Z,12.63
2022-12-15T21:42:02.899Z,14.43
2022-12-15T21:44:31.124Z,11.27
2022-12-15T21:46:59.369Z,11.25
2022-12-15T21:49:27.581Z,10.38
2022-12-15T21:52:00.315Z,12.07
2022-12-15T21:54:35.455Z,8.45
2022-12-15T21:57:03.938Z,7.07
2022-12-15T21:59:33.696Z,9.07
2022-12-15T22:02:08.735Z,8.77
2022-12-15T22:04:36.952Z,6.32
2022-12-15T22:07:10.503Z,6.72
2022-12-15T22:09:38.673Z,8.32
2022-12-15T22:12:16.121Z,7.13
2022-12-15T22:14:45.474Z,9.05
2022-12-15T22:17:18.736Z,6.70
2022-12-15T22:22:16.653Z,7.72
2022-12-15T22:24:45.147Z,7.05
2022-12-15T22:27:21.234Z,6.72
2022-12-15T22:29:50.515Z,9.68
2022-12-15T22:32:18.814Z,8.68
2022-12-15T22:34:46.985Z,8.88
2022-12-15T22:37:15.829Z,9.32
2022-12-15T22:39:43.986Z,9.07
2022-12-15T22:42:17.195Z,8.88
2022-12-15T22:47:14.037Z,8.43
2022-12-15T22:49:42.723Z,12.48
2022-12-15T22:52:19.656Z,8.30
2022-12-15T22:55:06.745Z,10.95
2022-12-15T22:57:35.021Z,10.35
2022-12-15T23:00:08.061Z,12.65
2022-12-15T23:02:40.226Z,10.60
2022-12-15T23:05:10.018Z,9.65
2022-12-15T23:07:38.466Z,15.15
2022-12-15T23:10:25.910Z,11.73
2022-12-15T23:12:54.670Z,12.88
2022-12-15T23:15:44.073Z,12.02
2022-12-15T23:18:12.537Z,11.93
2022-12-15T23:20:40.832Z,12.00
2022-12-15T23:23:09.975Z,10.20
2022-12-15T23:25:38.255Z,11.75
2022-12-15T23:28:06.554Z,12.57
2022-12-15T23:30:34.898Z,10.43
2022-12-15T23:33:03.217Z,10.95
2022-12-15T23:35:31.493Z,11.40
2022-12-15T23:37:59.673Z,11.15
2022-12-15T23:40:27.790Z,11.65
2022-12-15T23:42:56.006Z,11.00
2022-12-15T23:45:24.157Z,12.85
2022-12-15T23:47:52.425Z,13.95
2022-12-15T23:50:22.289Z,12.27
2022-12-15T23:52:51.784Z,12.27
2022-12-15T23:55:20.490Z,13.98
2022-12-15T23:57:48.697Z,9.45
